Time;durP1;ratioP1;P1;durP2;ratioP2;P2;SDS_P1;SDS_P2;PMS_P1;PMS_P2;Temp;Humidity;BMP_temperature;BMP_pressure;BME280_temperature;BME280_humidity;BME280_pressure;Samples;Min_cycle;Max_cycle;Signal;HPM_P1;HPM_P2
2021/03/22 00:00:34;;;;;;;4.82;1.40;;;24.30;14.70;;;;;;5117163;27;20582;-55
2021/03/22 00:03:01;;;;;;;11.05;3.90;;;24.10;14.70;;;;;;5116901;27;20666;-53
2021/03/22 00:05:27;;;;;;;8.68;2.03;;;24.20;14.90;;;;;;5113497;27;20076;-54
2021/03/22 00:07:55;;;;;;;9.90;1.75;;;24.20;14.90;;;;;;5119029;27;20064;-52
2021/03/22 00:10:24;;;;;;;7.38;1.67;;;24.40;14.90;;;;;;5116216;27;20112;-52
2021/03/22 00:12:53;;;;;;;7.47;2.25;;;24.60;14.60;;;;;;5112593;27;20459;-50
2021/03/22 00:15:21;;;;;;;6.20;1.80;;;24.70;14.40;;;;;;5110287;28;20089;-51
2021/03/22 00:17:50;;;;;;;8.02;1.63;;;24.80;14.30;;;;;;5109739;28;20096;-53
2021/03/22 00:20:18;;;;;;;9.38;2.10;;;24.90;14.40;;;;;;5115223;28;20091;-52
2021/03/22 00:22:45;;;;;;;9.00;2.00;;;24.90;14.10;;;;;;5113834;28;20401;-51
2021/03/22 00:25:12;;;;;;;10.75;2.10;;;25.00;13.80;;;;;;5113215;28;20069;-52
2021/03/22 00:27:38;;;;;;;12.38;1.95;;;25.10;13.40;;;;;;5113725;28;20094;-55
2021/03/22 00:30:11;;;;;;;8.98;1.75;;;25.20;12.90;;;;;;5118398;28;20076;-53
2021/03/22 00:32:37;;;;;;;6.85;2.35;;;25.30;12.90;;;;;;5112871;28;20076;-52
2021/03/22 00:35:04;;;;;;;6.20;1.80;;;25.30;12.80;;;;;;5113177;28;20072;-54
2021/03/22 00:37:31;;;;;;;10.18;2.40;;;25.30;13.00;;;;;;5112469;28;20077;-56
2021/03/22 00:39:57;;;;;;;12.70;2.00;;;25.40;13.90;;;;;;5118415;28;20076;-53
2021/03/22 00:42:24;;;;;;;10.32;2.25;;;25.20;14.30;;;;;;5109475;28;20145;-53
2021/03/22 00:44:51;;;;;;;9.68;2.25;;;25.20;13.50;;;;;;5116679;28;20469;-53
2021/03/22 00:47:17;;;;;;;10.05;2.03;;;25.10;14.40;;;;;;5116169;28;20104;-57
2021/03/22 00:49:44;;;;;;;10.68;2.30;;;25.00;15.40;;;;;;5112245;28;20082;-51
2021/03/22 00:52:11;;;;;;;12.18;2.78;;;24.70;15.90;;;;;;5110561;28;20072;-59
2021/03/22 00:54:43;;;;;;;16.08;3.22;;;24.70;17.40;;;;;;5118072;28;20114;-53
2021/03/22 00:57:10;;;;;;;19.00;3.10;;;24.40;18.80;;;;;;5116977;28;20060;-57
2021/03/22 00:59:37;;;;;;;16.13;3.53;;;24.40;19.60;;;;;;5119990;28;20068;-59
2021/03/22 01:02:05;;;;;;;16.10;2.80;;;24.10;20.20;;;;;;5114815;28;20580;-56
2021/03/22 01:04:31;;;;;;;21.10;3.30;;;24.20;20.20;;;;;;5113989;28;20147;-55
2021/03/22 01:06:58;;;;;;;24.35;3.47;;;24.20;20.40;;;;;;5115967;28;20068;-55
2021/03/22 01:09:25;;;;;;;18.35;4.07;;;24.00;20.60;;;;;;5118103;28;20119;-53
2021/03/22 01:11:52;;;;;;;13.55;2.95;;;23.90;20.80;;;;;;5095319;28;20534;-50
2021/03/22 01:14:18;;;;;;;18.75;3.00;;;23.80;21.00;;;;;;5118060;27;20068;-56
2021/03/22 01:16:45;;;;;;;12.52;3.00;;;23.70;21.20;;;;;;5114956;27;20536;-55
2021/03/22 01:19:19;;;;;;;20.02;3.72;;;23.60;20.80;;;;;;5116978;27;20095;-53
2021/03/22 01:21:49;;;;;;;26.15;3.20;;;23.60;20.70;;;;;;5118595;27;20414;-54
2021/03/22 01:24:19;;;;;;;36.78;3.58;;;23.50;20.60;;;;;;5115191;27;20470;-51
2021/03/22 01:26:48;;;;;;;27.42;3.72;;;23.50;20.70;;;;;;5118473;27;20064;-55
2021/03/22 01:29:25;;;;;;;32.90;4.38;;;23.20;20.80;;;;;;5119822;27;20544;-53
2021/03/22 01:31:56;;;;;;;23.65;3.63;;;23.10;21.00;;;;;;5097675;28;20107;-56
2021/03/22 01:34:23;;;;;;;30.80;3.35;;;22.90;20.90;;;;;;5120307;27;20076;-55
2021/03/22 01:36:50;;;;;;;18.40;3.20;;;22.90;21.10;;;;;;5100981;28;20084;-51
2021/03/22 01:39:21;;;;;;;11.57;3.17;;;22.80;21.00;;;;;;5121922;27;20076;-59
2021/03/22 01:42:13;;;;;;;13.65;2.90;;;22.70;21.00;;;;;;5121492;27;20136;-53
2021/03/22 01:44:49;;;;;;;14.05;2.85;;;22.60;21.00;;;;;;5120580;27;20064;-56
2021/03/22 01:47:31;;;;;;;15.43;3.73;;;22.40;21.30;;;;;;5118542;27;20151;-54
2021/03/22 01:50:01;;;;;;;14.52;3.78;;;22.30;21.50;;;;;;5120908;27;20129;-56
2021/03/22 01:52:30;;;;;;;20.05;3.95;;;22.30;21.80;;;;;;5114076;27;20072;-56
2021/03/22 01:54:58;;;;;;;12.60;3.42;;;22.20;21.80;;;;;;5115004;27;20076;-54
2021/03/22 01:57:34;;;;;;;23.50;3.83;;;22.10;21.20;;;;;;5113820;27;20163;-53
2021/03/22 02:00:26;;;;;;;20.83;3.70;;;22.00;21.10;;;;;;5115519;27;20072;-57
2021/03/22 02:03:16;;;;;;;20.20;3.22;;;21.90;20.80;;;;;;5117894;27;20085;-54
2021/03/22 02:05:47;;;;;;;20.60;3.30;;;21.70;20.60;;;;;;5115762;27;20083;-52
2021/03/22 02:08:33;;;;;;;52.58;5.20;;;21.70;20.90;;;;;;5100098;28;20069;-55
2021/03/22 02:11:00;;;;;;;45.92;4.22;;;21.50;21.60;;;;;;5115628;27;20499;-56
2021/03/22 02:13:30;;;;;;;42.05;5.28;;;21.50;21.80;;;;;;5113635;27;20121;-55
2021/03/22 02:16:15;;;;;;;62.80;5.80;;;21.40;21.90;;;;;;5096228;28;20072;-57
2021/03/22 02:19:04;;;;;;;51.67;4.45;;;21.30;22.50;;;;;;5097294;27;20069;-53
2021/03/22 02:21:58;;;;;;;43.22;4.60;;;21.20;22.80;;;;;;5117336;27;20606;-57
2021/03/22 02:25:00;;;;;;;30.90;4.85;;;21.00;23.00;;;;;;5114358;27;20077;-55
2021/03/22 02:28:03;;;;;;;23.95;3.53;;;21.00;23.20;;;;;;5098446;27;20229;-54
2021/03/22 02:31:07;;;;;;;34.13;4.30;;;20.90;23.20;;;;;;5111925;27;20072;-55
2021/03/22 02:34:05;;;;;;;20.90;3.08;;;20.90;23.80;;;;;;5047430;27;20128;-57
2021/03/22 02:37:03;;;;;;;37.13;4.23;;;20.80;24.50;;;;;;5115329;27;20094;-56
2021/03/22 02:39:42;;;;;;;27.35;3.90;;;20.70;25.20;;;;;;5113578;27;20075;-56
2021/03/22 02:42:11;;;;;;;38.75;4.13;;;20.60;25.70;;;;;;5111849;27;20104;-57
2021/03/22 02:44:38;;;;;;;22.58;3.08;;;20.60;25.90;;;;;;5098964;28;20168;-56
2021/03/22 02:47:22;;;;;;;25.30;3.92;;;20.50;25.90;;;;;;5112701;27;20068;-55
2021/03/22 02:49:50;;;;;;;21.55;3.00;;;20.50;25.60;;;;;;5113933;27;20087;-55
2021/03/22 02:52:39;;;;;;;18.40;3.10;;;20.50;25.40;;;;;;5119204;27;20086;-58
2021/03/22 02:55:05;;;;;;;32.80;4.05;;;20.50;25.40;;;;;;5115885;27;20137;-54
2021/03/22 02:57:38;;;;;;;46.45;4.13;;;20.40;25.40;;;;;;5098781;28;20129;-56
2021/03/22 03:00:32;;;;;;;41.65;4.60;;;20.30;25.60;;;;;;5115017;27;20103;-54
2021/03/22 03:03:06;;;;;;;36.20;4.65;;;20.30;25.70;;;;;;5083719;27;20172;-58
2021/03/22 03:05:33;;;;;;;30.95;3.20;;;20.20;25.40;;;;;;5120166;27;20076;-55
2021/03/22 03:08:08;;;;;;;20.38;3.65;;;20.20;25.10;;;;;;5116364;27;20078;-55
2021/03/22 03:10:34;;;;;;;25.60;2.95;;;20.20;25.00;;;;;;5114058;27;20143;-56
2021/03/22 03:13:01;;;;;;;14.32;2.90;;;20.20;25.10;;;;;;5107139;27;20585;-59
2021/03/22 03:15:28;;;;;;;10.23;2.42;;;20.10;24.90;;;;;;5116925;27;20608;-56
2021/03/22 03:17:54;;;;;;;22.30;4.13;;;20.10;25.00;;;;;;5120061;27;20064;-54
2021/03/22 03:20:27;;;;;;;9.52;3.03;;;20.00;25.00;;;;;;5116774;27;20092;-55
2021/03/22 03:22:55;;;;;;;14.68;2.60;;;20.00;24.90;;;;;;5115702;27;20085;-55
2021/03/22 03:25:22;;;;;;;11.88;2.30;;;19.90;24.80;;;;;;5112877;27;20072;-55
2021/03/22 03:27:49;;;;;;;17.95;2.25;;;19.90;24.80;;;;;;5116974;27;20133;-60
2021/03/22 03:30:20;;;;;;;7.68;2.05;;;19.90;24.90;;;;;;5112465;27;20084;-54
2021/03/22 03:32:47;;;;;;;15.75;3.10;;;19.80;25.70;;;;;;5116586;27;20129;-57
2021/03/22 03:35:15;;;;;;;28.67;2.78;;;19.70;26.80;;;;;;5118005;27;20076;-52
2021/03/22 03:37:42;;;;;;;22.23;2.45;;;19.70;27.60;;;;;;5115729;27;20094;-58
2021/03/22 03:40:17;;;;;;;22.35;2.55;;;19.60;28.80;;;;;;5115941;27;20083;-57
2021/03/22 03:42:43;;;;;;;20.60;3.08;;;19.50;29.40;;;;;;5117343;27;20436;-53
2021/03/22 03:45:13;;;;;;;20.70;2.83;;;19.40;30.00;;;;;;5110764;27;20079;-53
2021/03/22 03:47:41;;;;;;;19.73;3.22;;;19.30;30.20;;;;;;5119844;27;20068;-60
2021/03/22 03:50:29;;;;;;;12.05;3.25;;;19.30;30.30;;;;;;5120354;27;20075;-55
2021/03/22 03:52:57;;;;;;;17.70;3.38;;;19.20;30.30;;;;;;5115317;27;20069;-56
2021/03/22 03:55:26;;;;;;;18.85;2.80;;;19.20;30.50;;;;;;5121920;27;20079;-55
2021/03/22 03:57:53;;;;;;;15.80;3.72;;;19.10;30.50;;;;;;5114135;27;20520;-57
2021/03/22 04:00:26;;;;;;;19.92;3.50;;;19.10;30.60;;;;;;5113297;28;20577;-57
2021/03/22 04:02:54;;;;;;;30.60;4.38;;;19.00;30.90;;;;;;5116838;27;20103;-59
2021/03/22 04:05:22;;;;;;;18.33;3.50;;;19.00;31.10;;;;;;5116270;27;20064;-60
2021/03/22 04:07:49;;;;;;;12.90;3.17;;;19.00;31.40;;;;;;5113351;27;20068;-60
2021/03/22 04:10:17;;;;;;;33.20;3.50;;;18.90;31.70;;;;;;5113716;28;20486;-55
2021/03/22 04:12:44;;;;;;;21.00;3.63;;;18.90;32.20;;;;;;5105948;27;20080;-60
2021/03/22 04:15:14;;;;;;;15.77;2.88;;;18.90;32.90;;;;;;5109382;28;20073;-57
2021/03/22 04:17:41;;;;;;;20.58;3.30;;;18.90;33.40;;;;;;5111692;28;20111;-56
2021/03/22 04:20:11;;;;;;;16.35;3.05;;;18.80;34.60;;;;;;5120343;28;20076;-57
2021/03/22 04:22:37;;;;;;;22.40;3.88;;;18.80;34.40;;;;;;5112453;28;20138;-56
2021/03/22 04:25:04;;;;;;;;;;;18.80;34.90;;;;;;5114705;28;20167;-56
2021/03/22 04:27:30;;;;;;;14.60;3.67;;;18.70;35.30;;;;;;5116268;28;19966;-56
2021/03/22 04:29:57;;;;;;;;;;;18.70;35.50;;;;;;5111669;28;20136;-53
2021/03/22 04:32:23;;;;;;;17.38;3.50;;;18.70;35.40;;;;;;5110996;28;20432;-53
2021/03/22 04:34:50;;;;;;;13.43;3.58;;;18.70;35.40;;;;;;5116431;28;20099;-56
2021/03/22 04:37:16;;;;;;;;;;;18.70;35.60;;;;;;5118981;28;20075;-55
2021/03/22 04:39:43;;;;;;;16.85;3.10;;;18.60;35.50;;;;;;5118383;28;19960;-55
2021/03/22 04:42:10;;;;;;;20.50;3.60;;;18.60;35.40;;;;;;5118077;28;20537;-53
2021/03/22 04:44:37;;;;;;;14.30;2.88;;;18.70;35.20;;;;;;5118874;28;20072;-53
2021/03/22 04:47:03;;;;;;;;;;;18.60;35.20;;;;;;5118978;27;20159;-56
2021/03/22 04:49:29;;;;;;;16.67;3.03;;;18.70;35.20;;;;;;5118936;27;20320;-54
2021/03/22 04:51:55;;;;;;;;;;;18.70;35.10;;;;;;5119698;27;20071;-57
2021/03/22 04:54:22;;;;;;;22.33;3.58;;;18.70;35.10;;;;;;5121740;27;20329;-57
2021/03/22 04:56:48;;;;;;;;;;;18.60;35.10;;;;;;5119747;27;20099;-54
2021/03/22 04:59:15;;;;;;;21.50;3.10;;;18.60;35.10;;;;;;5121537;27;20412;-58
2021/03/22 05:01:41;;;;;;;21.20;3.90;;;18.60;35.20;;;;;;5124155;27;20103;-57
2021/03/22 05:04:07;;;;;;;;;;;18.60;35.20;;;;;;5118268;27;20072;-56
2021/03/22 05:06:34;;;;;;;23.38;3.22;;;18.50;35.30;;;;;;5118821;27;19956;-56
2021/03/22 05:09:00;;;;;;;;;;;18.50;35.40;;;;;;5118034;27;20151;-56
2021/03/22 05:11:27;;;;;;;19.23;2.78;;;18.50;35.30;;;;;;5119206;27;20032;-55
2021/03/22 05:13:54;;;;;;;14.68;3.10;;;18.40;35.30;;;;;;5122006;27;20109;-58
2021/03/22 05:16:21;;;;;;;13.07;2.97;;;18.30;35.30;;;;;;5120323;27;20765;-56
2021/03/22 05:18:48;;;;;;;;;;;18.30;35.50;;;;;;5119155;27;20102;-54
2021/03/22 05:21:14;;;;;;;12.00;2.90;;;18.30;35.40;;;;;;5120708;27;20074;-55
2021/03/22 05:23:41;;;;;;;14.40;3.55;;;18.30;35.50;;;;;;5117872;27;20408;-54
2021/03/22 05:26:10;;;;;;;12.05;3.55;;;18.30;35.20;;;;;;5120369;27;20088;-53
2021/03/22 05:28:40;;;;;;;13.05;2.88;;;18.30;34.80;;;;;;5086490;28;20136;-52
2021/03/22 05:31:08;;;;;;;14.60;2.72;;;18.30;34.70;;;;;;5125155;27;20098;-57
2021/03/22 05:33:35;;;;;;;15.20;2.90;;;18.30;34.50;;;;;;5120711;27;20234;-56
2021/03/22 05:36:01;;;;;;;12.00;2.92;;;18.30;34.50;;;;;;5114584;27;20116;-56
2021/03/22 05:38:28;;;;;;;;;;;18.30;34.40;;;;;;5120399;27;20129;-57
2021/03/22 05:41:03;;;;;;;9.15;2.50;;;18.30;34.30;;;;;;5115488;27;19983;-58
2021/03/22 05:43:42;;;;;;;11.82;3.20;;;18.30;34.20;;;;;;5102377;27;20407;-57
2021/03/22 05:46:20;;;;;;;17.45;2.92;;;18.20;34.10;;;;;;5117365;27;20107;-59
2021/03/22 05:49:17;;;;;;;11.38;3.13;;;18.20;34.20;;;;;;5115300;27;20071;-58
2021/03/22 05:51:56;;;;;;;13.10;3.25;;;18.20;34.20;;;;;;5118713;27;20107;-57
2021/03/22 05:54:29;;;;;;;15.57;3.45;;;18.20;34.10;;;;;;5122086;27;20080;-54
2021/03/22 05:57:07;;;;;;;11.68;3.78;;;18.10;33.90;;;;;;5101554;27;20155;-53
2021/03/22 06:00:12;;;;;;;10.93;2.72;;;18.10;33.80;;;;;;5119397;27;20099;-56
2021/03/22 06:03:04;;;;;;;12.88;2.60;;;18.10;33.50;;;;;;5122485;27;20562;-54
2021/03/22 06:05:49;;;;;;;11.73;3.05;;;18.10;33.30;;;;;;5118840;27;20520;-58
2021/03/22 06:08:42;;;;;;;11.50;2.80;;;18.10;33.10;;;;;;5118156;27;20487;-55
2021/03/22 06:11:51;;;;;;;12.30;2.40;;;18.10;32.70;;;;;;5119246;27;20123;-53
2021/03/22 06:14:38;;;;;;;10.27;2.65;;;18.10;32.60;;;;;;5028919;28;20231;-56
2021/03/22 06:17:20;;;;;;;8.63;2.40;;;18.10;32.80;;;;;;5027337;28;20105;-53
2021/03/22 06:19:55;;;;;;;13.57;2.75;;;18.00;32.70;;;;;;5098173;27;20150;-55
2021/03/22 06:22:25;;;;;;;17.73;3.58;;;18.00;32.80;;;;;;5118257;27;20099;-53
2021/03/22 06:24:56;;;;;;;13.45;3.03;;;18.00;32.80;;;;;;5119409;27;20064;-55
2021/03/22 06:27:23;;;;;;;13.30;3.00;;;17.90;32.90;;;;;;5114783;27;20217;-58
2021/03/22 06:29:51;;;;;;;19.80;2.65;;;17.80;32.90;;;;;;5121364;27;20096;-56
2021/03/22 06:32:30;;;;;;;19.48;2.53;;;17.80;33.00;;;;;;5115084;27;20125;-54
2021/03/22 06:35:00;;;;;;;14.38;3.00;;;17.70;32.90;;;;;;5119373;27;20067;-54
2021/03/22 06:37:29;;;;;;;11.32;2.97;;;17.70;32.90;;;;;;5105543;27;20068;-53
2021/03/22 06:40:26;;;;;;;12.35;2.30;;;17.70;32.80;;;;;;5118260;27;20153;-53
2021/03/22 06:43:09;;;;;;;15.85;2.72;;;17.70;32.60;;;;;;5121162;27;20128;-53
2021/03/22 06:45:42;;;;;;;12.25;3.17;;;17.70;32.80;;;;;;5118876;27;20087;-54
2021/03/22 06:48:23;;;;;;;12.50;3.20;;;17.60;32.70;;;;;;5121956;27;20091;-57
2021/03/22 06:51:01;;;;;;;9.20;3.05;;;17.50;32.70;;;;;;5098895;27;20104;-56
2021/03/22 06:53:38;;;;;;;11.63;2.65;;;17.50;32.80;;;;;;5117442;27;20182;-57
2021/03/22 06:56:13;;;;;;;;;;;17.40;32.80;;;;;;5120526;27;20072;-55
2021/03/22 06:58:40;;;;;;;9.65;2.92;;;17.30;32.90;;;;;;5117212;27;19979;-56
2021/03/22 07:01:33;;;;;;;11.00;2.83;;;17.30;32.90;;;;;;5120453;27;20145;-57
2021/03/22 07:04:26;;;;;;;14.57;2.88;;;17.30;33.10;;;;;;5111050;27;20079;-53
2021/03/22 07:07:20;;;;;;;13.50;2.47;;;17.20;33.00;;;;;;5114378;27;20072;-54
2021/03/22 07:10:00;;;;;;;11.98;2.03;;;17.20;32.90;;;;;;5118410;27;20107;-53
2021/03/22 07:12:36;;;;;;;8.70;2.20;;;17.20;32.90;;;;;;5115591;27;20064;-52
2021/03/22 07:15:27;;;;;;;9.18;2.35;;;17.20;32.90;;;;;;5113191;27;20068;-52
2021/03/22 07:18:07;;;;;;;12.98;2.72;;;17.20;32.70;;;;;;5115080;27;20079;-51
2021/03/22 07:20:34;;;;;;;9.93;2.58;;;17.10;32.70;;;;;;5118429;27;20088;-53
2021/03/22 07:23:26;;;;;;;14.77;2.65;;;17.00;32.60;;;;;;5125205;27;20103;-52
2021/03/22 07:26:01;;;;;;;10.10;2.30;;;17.00;32.70;;;;;;5081779;27;20100;-51
2021/03/22 07:29:07;;;;;;;15.98;2.35;;;16.90;32.60;;;;;;5120475;27;20083;-52
2021/03/22 07:31:36;;;;;;;16.08;3.03;;;16.90;32.70;;;;;;5115134;27;20125;-52
2021/03/22 07:34:21;;;;;;;13.95;2.60;;;16.90;32.30;;;;;;5114352;27;20105;-53
2021/03/22 07:37:26;;;;;;;12.52;3.30;;;17.00;32.30;;;;;;5115305;27;20072;-50
2021/03/22 07:39:58;;;;;;;12.75;2.90;;;17.00;32.00;;;;;;5115240;27;20167;-52
2021/03/22 07:42:25;;;;;;;14.10;2.90;;;17.00;31.90;;;;;;5099259;28;20099;-53
2021/03/22 07:44:58;;;;;;;;;;;17.00;31.80;;;;;;5112481;27;20068;-56
2021/03/22 07:47:50;;;;;;;7.47;2.83;;;17.00;31.50;;;;;;5119181;27;19955;-54
2021/03/22 07:50:35;;;;;;;17.75;2.97;;;17.10;31.50;;;;;;5118521;27;20129;-55
2021/03/22 07:53:22;;;;;;;10.93;2.58;;;17.10;31.30;;;;;;5121600;27;20159;-57
2021/03/22 07:56:15;;;;;;;8.38;2.35;;;17.10;31.10;;;;;;5103550;27;20080;-51
2021/03/22 07:59:00;;;;;;;10.93;2.40;;;17.10;31.00;;;;;;5105687;27;20080;-54
2021/03/22 08:01:44;;;;;;;9.02;2.47;;;17.10;30.90;;;;;;5113864;27;20421;-53
2021/03/22 08:04:29;;;;;;;11.00;2.08;;;17.10;30.80;;;;;;5115188;27;20076;-55
2021/03/22 08:07:29;;;;;;;9.35;2.47;;;17.00;30.70;;;;;;5114268;27;20412;-55
2021/03/22 08:10:22;;;;;;;11.27;2.00;;;17.10;30.70;;;;;;5116571;27;20180;-53
2021/03/22 08:12:57;;;;;;;14.07;4.38;;;17.10;30.60;;;;;;5104243;27;20081;-54
2021/03/22 08:15:54;;;;;;;14.13;2.35;;;17.10;30.60;;;;;;5115968;28;20471;-52
2021/03/22 08:18:47;;;;;;;13.20;3.53;;;17.10;30.70;;;;;;5113741;27;20555;-52
2021/03/22 08:21:34;;;;;;;8.15;2.55;;;17.00;30.70;;;;;;5103295;28;20198;-52
2021/03/22 08:24:20;;;;;;;14.57;2.95;;;17.00;30.80;;;;;;5119402;28;20464;-52
2021/03/22 08:26:49;;;;;;;8.57;2.42;;;16.90;30.80;;;;;;5116491;28;20517;-57
2021/03/22 08:29:27;;;;;;;15.23;3.58;;;16.90;31.10;;;;;;5118223;28;20108;-53
2021/03/22 08:32:12;;;;;;;12.25;3.80;;;16.90;31.20;;;;;;5115863;28;20128;-52
2021/03/22 08:34:49;;;;;;;17.52;4.88;;;16.80;31.00;;;;;;5114547;28;20068;-52
2021/03/22 08:37:47;;;;;;;15.20;3.75;;;16.80;31.20;;;;;;5120407;28;20080;-53
2021/03/22 08:40:42;;;;;;;12.80;3.90;;;16.80;31.10;;;;;;5111420;28;20091;-56
2021/03/22 08:43:41;;;;;;;12.75;3.28;;;16.70;31.00;;;;;;5112713;28;20229;-54
2021/03/22 08:46:18;;;;;;;10.73;2.67;;;16.70;31.10;;;;;;5113164;28;20206;-54
2021/03/22 08:48:45;;;;;;;11.88;2.78;;;16.60;31.00;;;;;;5117501;28;20451;-55
2021/03/22 08:51:31;;;;;;;11.45;2.58;;;16.60;30.70;;;;;;5116081;28;20064;-51
2021/03/22 08:53:59;;;;;;;8.23;1.92;;;16.60;30.60;;;;;;5116840;28;20462;-54
2021/03/22 08:56:35;;;;;;;15.55;2.47;;;16.60;30.40;;;;;;5118458;28;20076;-56
2021/03/22 08:59:07;;;;;;;8.23;2.17;;;16.60;30.10;;;;;;5118095;28;20068;-53
2021/03/22 09:01:39;;;;;;;10.25;2.05;;;16.60;30.00;;;;;;5117563;28;20095;-52
2021/03/22 09:04:33;;;;;;;10.75;2.22;;;16.60;29.80;;;;;;5118833;28;20127;-54
2021/03/22 09:07:25;;;;;;;13.15;2.55;;;16.60;29.60;;;;;;5116319;28;20540;-54
2021/03/22 09:09:52;;;;;;;9.77;2.53;;;16.60;29.30;;;;;;5118047;28;20166;-53
2021/03/22 09:12:43;;;;;;;10.48;2.25;;;16.70;29.10;;;;;;5113644;28;20115;-54
2021/03/22 09:15:40;;;;;;;13.20;3.00;;;16.70;28.80;;;;;;5115285;28;20167;-53
2021/03/22 09:18:14;;;;;;;12.60;3.00;;;16.70;28.50;;;;;;5110303;28;20529;-52
2021/03/22 09:20:47;;;;;;;9.70;2.50;;;16.60;28.50;;;;;;5115075;28;20084;-52
2021/03/22 09:23:32;;;;;;;13.60;2.85;;;16.60;28.50;;;;;;5099759;28;20075;-52
2021/03/22 09:26:04;;;;;;;9.35;2.78;;;16.60;28.40;;;;;;5112334;28;20083;-52
2021/03/22 09:28:33;;;;;;;17.17;2.92;;;16.60;28.10;;;;;;5115293;28;20071;-52
2021/03/22 09:31:01;;;;;;;14.15;3.60;;;16.60;28.10;;;;;;5112260;28;20064;-55
2021/03/22 09:33:49;;;;;;;10.25;2.88;;;16.60;28.00;;;;;;5113897;28;20099;-53
2021/03/22 09:36:36;;;;;;;10.25;2.80;;;16.60;27.90;;;;;;5120705;27;20082;-52
2021/03/22 09:39:18;;;;;;;9.32;3.00;;;16.50;27.80;;;;;;5119649;27;20103;-52
2021/03/22 09:42:12;;;;;;;10.38;2.42;;;16.50;27.80;;;;;;5119099;27;20188;-53
2021/03/22 09:44:58;;;;;;;11.85;2.55;;;16.50;27.70;;;;;;5100464;27;20133;-52
2021/03/22 09:47:28;;;;;;;8.07;2.33;;;16.50;27.60;;;;;;5100524;27;20126;-51
2021/03/22 09:50:01;;;;;;;8.15;2.05;;;16.40;27.70;;;;;;5122831;27;20079;-55
2021/03/22 09:52:33;;;;;;;9.25;2.28;;;16.40;27.80;;;;;;5116413;27;20107;-55
2021/03/22 09:55:01;;;;;;;10.75;2.97;;;16.30;27.90;;;;;;5115473;27;20163;-53
2021/03/22 09:57:35;;;;;;;11.40;3.20;;;16.20;28.00;;;;;;5119509;27;20479;-56
2021/03/22 10:00:26;;;;;;;14.05;2.92;;;16.20;28.20;;;;;;5118030;27;20079;-58
2021/03/22 10:03:00;;;;;;;10.13;3.20;;;16.10;28.20;;;;;;5119979;27;20092;-54
2021/03/22 10:05:52;;;;;;;8.77;2.45;;;16.10;28.20;;;;;;5119930;27;20622;-55
2021/03/22 10:08:19;;;;;;;12.15;2.15;;;16.00;28.20;;;;;;5119989;27;20081;-52
2021/03/22 10:11:06;;;;;;;12.48;2.38;;;16.00;28.30;;;;;;5117064;27;20104;-53
2021/03/22 10:13:45;;;;;;;6.78;2.03;;;16.00;28.40;;;;;;5120811;27;20086;-55
2021/03/22 10:16:17;;;;;;;10.18;1.95;;;15.90;28.70;;;;;;5112882;27;20068;-53
2021/03/22 10:19:15;;;;;;;4.25;1.88;;;15.80;29.10;;;;;;5115699;27;20075;-52
2021/03/22 10:21:50;;;;;;;7.88;2.35;;;15.70;29.50;;;;;;5115347;27;20107;-53
2021/03/22 10:24:53;;;;;;;8.23;1.70;;;15.60;29.60;;;;;;5119050;27;20063;-54
2021/03/22 10:27:31;;;;;;;9.48;2.40;;;15.60;29.80;;;;;;5116947;27;20080;-56
2021/03/22 10:30:21;;;;;;;9.13;2.55;;;15.60;29.80;;;;;;5080577;27;20076;-55
2021/03/22 10:33:00;;;;;;;11.13;2.70;;;15.60;29.80;;;;;;5116502;27;20076;-54
2021/03/22 10:35:47;;;;;;;15.00;3.22;;;15.50;29.90;;;;;;5121245;27;20471;-53
2021/03/22 10:38:26;;;;;;;16.23;4.85;;;15.60;30.00;;;;;;5120325;27;20079;-52
2021/03/22 10:40:54;;;;;;;29.35;11.43;;;15.50;30.00;;;;;;5114358;27;20085;-55
2021/03/22 10:43:30;;;;;;;37.05;14.77;;;15.50;30.00;;;;;;5118450;27;20100;-57
2021/03/22 10:46:20;;;;;;;62.75;29.35;;;15.50;29.80;;;;;;5117858;27;20103;-51
2021/03/22 10:49:08;;;;;;;65.70;29.80;;;15.50;29.70;;;;;;5117446;27;20473;-54
2021/03/22 10:51:49;;;;;;;48.15;21.92;;;15.50;29.70;;;;;;5117226;27;20083;-55
2021/03/22 10:54:18;;;;;;;43.15;18.25;;;15.40;29.50;;;;;;5117724;27;20083;-53
2021/03/22 10:56:55;;;;;;;22.92;8.73;;;15.50;29.40;;;;;;5115761;27;20142;-54
2021/03/22 10:59:27;;;;;;;11.07;3.33;;;15.50;29.20;;;;;;5120053;27;20086;-55
2021/03/22 11:01:57;;;;;;;10.40;2.25;;;15.50;29.20;;;;;;5121872;27;20187;-53
2021/03/22 11:04:28;;;;;;;11.35;2.10;;;15.50;29.20;;;;;;5120292;27;20544;-56
2021/03/22 11:06:57;;;;;;;8.50;2.05;;;15.50;29.20;;;;;;5115748;27;20068;-56
2021/03/22 11:09:30;;;;;;;8.15;1.23;;;15.50;29.00;;;;;;5114685;27;20096;-56
2021/03/22 11:12:01;;;;;;;6.53;1.42;;;15.50;29.00;;;;;;5115579;27;20079;-56
2021/03/22 11:14:31;;;;;;;6.50;1.70;;;15.40;29.10;;;;;;5105351;27;20072;-55
2021/03/22 11:17:11;;;;;;;7.78;1.80;;;15.30;29.60;;;;;;5113853;27;20098;-52
2021/03/22 11:19:46;;;;;;;7.03;1.35;;;15.20;30.30;;;;;;5117943;27;20132;-50
2021/03/22 11:22:23;;;;;;;6.70;1.65;;;15.10;31.60;;;;;;5116108;27;20099;-53
2021/03/22 11:24:50;;;;;;;7.95;1.60;;;14.90;32.50;;;;;;5118532;27;20076;-51
2021/03/22 11:27:16;;;;;;;10.18;1.58;;;14.80;33.70;;;;;;5117940;27;20096;-54
2021/03/22 11:30:00;;;;;;;7.07;1.55;;;14.70;34.60;;;;;;5120503;27;20067;-53
2021/03/22 11:32:30;;;;;;;5.78;1.48;;;14.60;35.20;;;;;;5115544;27;20072;-52
2021/03/22 11:34:57;;;;;;;5.75;1.30;;;14.60;35.30;;;;;;5118144;27;20076;-54
2021/03/22 11:37:33;;;;;;;5.60;1.50;;;14.50;35.40;;;;;;5121394;27;20129;-55
2021/03/22 11:40:17;;;;;;;9.40;1.77;;;14.50;35.30;;;;;;5117239;27;20228;-55
2021/03/22 11:42:53;;;;;;;5.38;1.20;;;14.40;35.40;;;;;;5115115;27;20103;-55
2021/03/22 11:45:41;;;;;;;6.50;1.30;;;14.50;35.10;;;;;;5120742;27;20143;-52
2021/03/22 11:48:26;;;;;;;7.78;1.52;;;14.40;35.10;;;;;;5096502;28;20076;-54
2021/03/22 11:51:03;;;;;;;7.13;1.50;;;14.40;36.40;;;;;;5113341;27;20073;-54
2021/03/22 11:53:30;;;;;;;6.05;1.48;;;14.40;36.30;;;;;;5116432;27;20064;-55
2021/03/22 11:56:16;;;;;;;7.57;1.50;;;14.40;35.60;;;;;;5117202;27;20064;-54
2021/03/22 11:58:44;;;;;;;6.57;1.83;;;14.30;35.40;;;;;;5113453;27;20072;-56
2021/03/22 12:01:26;;;;;;;6.45;1.27;;;14.30;35.30;;;;;;5118752;27;20092;-57
2021/03/22 12:04:14;;;;;;;6.35;1.33;;;14.30;35.10;;;;;;5117927;27;20079;-54
2021/03/22 12:06:59;;;;;;;6.38;1.65;;;14.20;35.00;;;;;;5117113;27;20553;-54
2021/03/22 12:09:27;;;;;;;8.30;1.80;;;14.30;35.00;;;;;;5116162;27;20579;-51
2021/03/22 12:11:56;;;;;;;7.18;1.55;;;14.30;34.50;;;;;;5098202;28;20079;-52
2021/03/22 12:14:23;;;;;;;7.82;1.40;;;14.20;33.70;;;;;;5115159;28;20095;-52
2021/03/22 12:16:55;;;;;;;5.35;1.40;;;14.30;33.50;;;;;;5116785;27;21100;-54
2021/03/22 12:19:39;;;;;;;10.90;2.00;;;14.30;33.00;;;;;;5117816;27;20159;-52
2021/03/22 12:22:06;;;;;;;8.13;1.30;;;14.40;32.60;;;;;;5113607;28;20099;-52
2021/03/22 12:24:33;;;;;;;6.03;1.33;;;14.40;32.10;;;;;;5114147;28;20124;-51
2021/03/22 12:26:59;;;;;;;;;;;14.40;31.90;;;;;;5118006;28;20114;-54
2021/03/22 12:29:25;;;;;;;4.88;1.38;;;14.40;31.30;;;;;;5115430;28;20097;-51
2021/03/22 12:31:51;;;;;;;;;;;14.50;31.00;;;;;;5115220;28;20071;-53
2021/03/22 12:34:24;;;;;;;5.68;1.30;;;14.40;30.80;;;;;;5114643;28;20051;-54
2021/03/22 12:36:52;;;;;;;13.32;2.00;;;14.40;30.70;;;;;;5117437;28;20538;-53
2021/03/22 12:39:26;;;;;;;8.88;1.48;;;14.40;30.80;;;;;;5118565;28;20614;-52
2021/03/22 12:41:59;;;;;;;8.35;1.80;;;14.40;31.00;;;;;;5114919;28;20096;-52
2021/03/22 12:44:26;;;;;;;6.50;1.30;;;14.40;30.60;;;;;;5114206;28;20118;-52
2021/03/22 12:46:53;;;;;;;5.03;1.30;;;14.50;30.20;;;;;;5116045;28;20072;-52
2021/03/22 12:49:21;;;;;;;;;;;14.60;29.80;;;;;;5117614;28;20094;-53
2021/03/22 12:51:47;;;;;;;;;;;14.70;29.60;;;;;;5112085;28;19955;-52
2021/03/22 12:54:13;;;;;;;7.63;1.25;;;14.90;29.00;;;;;;5118268;28;19960;-56
2021/03/22 12:56:40;;;;;;;;;;;15.10;28.60;;;;;;5116528;28;20429;-53
2021/03/22 12:59:15;;;;;;;4.75;1.05;;;15.20;27.90;;;;;;5114918;28;19956;-55
2021/03/22 13:01:41;;;;;;;3.53;1.27;;;15.30;27.40;;;;;;5097196;28;20107;-51
2021/03/22 13:04:07;;;;;;;;;;;15.60;26.80;;;;;;5119353;28;20080;-54
2021/03/22 13:06:34;;;;;;;4.32;1.15;;;15.70;26.60;;;;;;5116406;28;19971;-54
2021/03/22 13:09:00;;;;;;;;;;;15.80;26.50;;;;;;5119154;27;20075;-51
2021/03/22 13:11:26;;;;;;;5.70;1.08;;;15.90;26.70;;;;;;5115932;27;20059;-53
2021/03/22 13:13:52;;;;;;;;;;;15.70;27.90;;;;;;5119204;27;20068;-53
2021/03/22 13:16:21;;;;;;;10.75;1.40;;;15.50;29.30;;;;;;5119775;27;19967;-55
2021/03/22 13:18:48;;;;;;;6.15;1.38;;;15.30;29.30;;;;;;5119626;27;20067;-52
2021/03/22 13:21:18;;;;;;;8.40;1.33;;;15.30;29.60;;;;;;5114150;27;20100;-53
2021/03/22 13:23:46;;;;;;;7.15;1.30;;;15.10;29.80;;;;;;5122500;27;20116;-52
2021/03/22 13:26:18;;;;;;;3.60;1.15;;;15.00;30.50;;;;;;5118943;27;20548;-51